sensor_id;sensor_type;location;lat;lon;timestamp;temperature;humidity
9768;DHT22;4923;52.520;13.494;2023-03-08T00:02:08;1.20;1.00
9768;DHT22;4923;52.520;13.494;2023-03-08T00:04:55;1.10;1.00
9768;DHT22;4923;52.520;13.494;2023-03-08T00:07:42;1.10;1.00
9768;DHT22;4923;52.520;13.494;2023-03-08T00:10:31;1.10;1.00
9768;DHT22;4923;52.520;13.494;2023-03-08T00:13:17;1.10;1.00
9768;DHT22;4923;52.520;13.494;2023-03-08T00:16:06;1.10;1.00
9768;DHT22;4923;52.520;13.494;2023-03-08T00:18:54;1.00;1.00
9768;DHT22;4923;52.520;13.494;2023-03-08T00:21:40;1.00;1.00
9768;DHT22;4923;52.520;13.494;2023-03-08T00:24:27;1.00;1.00
9768;DHT22;4923;52.520;13.494;2023-03-08T00:27:16;0.90;1.00
9768;DHT22;4923;52.520;13.494;2023-03-08T00:30:03;0.90;1.00
9768;DHT22;4923;52.520;13.494;2023-03-08T00:32:51;0.90;1.00
9768;DHT22;4923;52.520;13.494;2023-03-08T00:35:37;0.90;1.00
9768;DHT22;4923;52.520;13.494;2023-03-08T00:38:24;0.80;1.00
9768;DHT22;4923;52.520;13.494;2023-03-08T00:41:11;0.90;1.00
9768;DHT22;4923;52.520;13.494;2023-03-08T00:43:59;0.90;1.00
9768;DHT22;4923;52.520;13.494;2023-03-08T00:46:46;0.90;1.00
9768;DHT22;4923;52.520;13.494;2023-03-08T00:49:33;1.00;1.00
9768;DHT22;4923;52.520;13.494;2023-03-08T00:52:20;1.10;1.00
9768;DHT22;4923;52.520;13.494;2023-03-08T00:55:08;1.10;1.00
9768;DHT22;4923;52.520;13.494;2023-03-08T00:57:55;1.00;1.00
9768;DHT22;4923;52.520;13.494;2023-03-08T01:00:44;1.00;1.00
9768;DHT22;4923;52.520;13.494;2023-03-08T01:03:31;0.90;1.00
9768;DHT22;4923;52.520;13.494;2023-03-08T01:06:18;0.90;1.00
9768;DHT22;4923;52.520;13.494;2023-03-08T01:09:05;0.80;1.00
9768;DHT22;4923;52.520;13.494;2023-03-08T01:11:52;0.70;1.00
9768;DHT22;4923;52.520;13.494;2023-03-08T01:14:39;0.70;1.00
9768;DHT22;4923;52.520;13.494;2023-03-08T01:17:27;0.70;1.00
9768;DHT22;4923;52.520;13.494;2023-03-08T01:20:14;0.70;1.00
9768;DHT22;4923;52.520;13.494;2023-03-08T01:23:01;0.70;1.00
9768;DHT22;4923;52.520;13.494;2023-03-08T01:25:48;0.70;1.00
9768;DHT22;4923;52.520;13.494;2023-03-08T01:28:35;0.70;1.00
9768;DHT22;4923;52.520;13.494;2023-03-08T01:31:24;0.60;1.00
9768;DHT22;4923;52.520;13.494;2023-03-08T01:34:12;0.60;1.00
9768;DHT22;4923;52.520;13.494;2023-03-08T01:36:59;0.60;1.00
9768;DHT22;4923;52.520;13.494;2023-03-08T01:39:46;0.70;1.00
9768;DHT22;4923;52.520;13.494;2023-03-08T01:42:33;0.60;1.00
9768;DHT22;4923;52.520;13.494;2023-03-08T01:48:46;0.50;1.00
9768;DHT22;4923;52.520;13.494;2023-03-08T01:51:38;0.50;1.00
9768;DHT22;4923;52.520;13.494;2023-03-08T01:54:30;0.60;1.00
9768;DHT22;4923;52.520;13.494;2023-03-08T01:57:21;0.50;1.00
9768;DHT22;4923;52.520;13.494;2023-03-08T02:00:10;0.60;1.00
9768;DHT22;4923;52.520;13.494;2023-03-08T02:02:59;0.50;1.00
9768;DHT22;4923;52.520;13.494;2023-03-08T02:05:48;0.50;1.00
9768;DHT22;4923;52.520;13.494;2023-03-08T02:08:37;0.50;1.00
9768;DHT22;4923;52.520;13.494;2023-03-08T02:11:24;0.50;1.00
9768;DHT22;4923;52.520;13.494;2023-03-08T02:14:11;0.50;1.00
9768;DHT22;4923;52.520;13.494;2023-03-08T02:16:58;0.60;1.00
9768;DHT22;4923;52.520;13.494;2023-03-08T02:19:48;0.50;1.00
9768;DHT22;4923;52.520;13.494;2023-03-08T02:22:40;0.60;1.00
9768;DHT22;4923;52.520;13.494;2023-03-08T02:25:27;0.60;1.00
9768;DHT22;4923;52.520;13.494;2023-03-08T02:28:14;0.60;1.00
9768;DHT22;4923;52.520;13.494;2023-03-08T02:31:01;0.60;1.00
9768;DHT22;4923;52.520;13.494;2023-03-08T02:33:48;0.60;1.00
9768;DHT22;4923;52.520;13.494;2023-03-08T02:36:35;0.60;1.00
9768;DHT22;4923;52.520;13.494;2023-03-08T02:39:23;0.50;1.00
9768;DHT22;4923;52.520;13.494;2023-03-08T02:42:10;0.50;1.00
9768;DHT22;4923;52.520;13.494;2023-03-08T02:44:57;0.40;1.00
9768;DHT22;4923;52.520;13.494;2023-03-08T02:47:44;0.40;1.00
9768;DHT22;4923;52.520;13.494;2023-03-08T02:50:31;0.40;1.00
9768;DHT22;4923;52.520;13.494;2023-03-08T02:53:17;0.40;1.00
9768;DHT22;4923;52.520;13.494;2023-03-08T02:56:06;0.30;1.00
9768;DHT22;4923;52.520;13.494;2023-03-08T02:58:53;0.40;1.00
9768;DHT22;4923;52.520;13.494;2023-03-08T03:01:40;0.50;1.00
9768;DHT22;4923;52.520;13.494;2023-03-08T03:04:28;0.50;1.00
9768;DHT22;4923;52.520;13.494;2023-03-08T03:07:15;0.50;1.00
9768;DHT22;4923;52.520;13.494;2023-03-08T03:10:02;0.50;1.00
9768;DHT22;4923;52.520;13.494;2023-03-08T03:12:50;0.50;1.00
9768;DHT22;4923;52.520;13.494;2023-03-08T03:15:37;0.50;1.00
9768;DHT22;4923;52.520;13.494;2023-03-08T03:18:25;0.60;1.00
9768;DHT22;4923;52.520;13.494;2023-03-08T03:21:13;0.70;1.00
9768;DHT22;4923;52.520;13.494;2023-03-08T03:24:00;0.70;1.00
9768;DHT22;4923;52.520;13.494;2023-03-08T03:26:49;0.70;1.00
9768;DHT22;4923;52.520;13.494;2023-03-08T03:29:37;0.80;1.00
9768;DHT22;4923;52.520;13.494;2023-03-08T03:32:24;0.80;1.00
9768;DHT22;4923;52.520;13.494;2023-03-08T03:35:11;0.80;1.00
9768;DHT22;4923;52.520;13.494;2023-03-08T03:37:58;0.80;1.00
9768;DHT22;4923;52.520;13.494;2023-03-08T03:40:45;0.70;1.00
9768;DHT22;4923;52.520;13.494;2023-03-08T03:43:32;0.80;1.00
9768;DHT22;4923;52.520;13.494;2023-03-08T03:46:20;0.80;1.00
9768;DHT22;4923;52.520;13.494;2023-03-08T03:49:07;0.80;1.00
9768;DHT22;4923;52.520;13.494;2023-03-08T03:51:54;0.80;1.00
9768;DHT22;4923;52.520;13.494;2023-03-08T03:54:41;0.70;1.00
9768;DHT22;4923;52.520;13.494;2023-03-08T03:57:28;0.80;1.00
9768;DHT22;4923;52.520;13.494;2023-03-08T04:00:16;0.90;1.00
9768;DHT22;4923;52.520;13.494;2023-03-08T04:03:04;0.90;1.00
9768;DHT22;4923;52.520;13.494;2023-03-08T04:05:51;0.90;1.00
9768;DHT22;4923;52.520;13.494;2023-03-08T04:08:38;0.80;1.00
9768;DHT22;4923;52.520;13.494;2023-03-08T04:11:30;0.80;1.00
9768;DHT22;4923;52.520;13.494;2023-03-08T04:14:17;0.90;1.00
9768;DHT22;4923;52.520;13.494;2023-03-08T04:17:04;0.80;1.00
9768;DHT22;4923;52.520;13.494;2023-03-08T04:19:52;0.80;1.00
9768;DHT22;4923;52.520;13.494;2023-03-08T04:22:39;0.80;1.00
9768;DHT22;4923;52.520;13.494;2023-03-08T04:25:25;0.80;1.00
9768;DHT22;4923;52.520;13.494;2023-03-08T04:28:12;0.90;1.00
9768;DHT22;4923;52.520;13.494;2023-03-08T04:30:59;0.90;1.00
9768;DHT22;4923;52.520;13.494;2023-03-08T04:33:47;0.90;1.00
9768;DHT22;4923;52.520;13.494;2023-03-08T04:36:36;1.00;1.00
9768;DHT22;4923;52.520;13.494;2023-03-08T04:39:22;0.90;1.00
9768;DHT22;4923;52.520;13.494;2023-03-08T04:42:09;0.90;1.00
9768;DHT22;4923;52.520;13.494;2023-03-08T04:44:56;0.90;1.00
9768;DHT22;4923;52.520;13.494;2023-03-08T04:47:43;0.90;1.00
9768;DHT22;4923;52.520;13.494;2023-03-08T04:50:30;0.90;1.00
9768;DHT22;4923;52.520;13.494;2023-03-08T04:53:18;0.90;1.00
9768;DHT22;4923;52.520;13.494;2023-03-08T04:56:06;0.90;1.00
9768;DHT22;4923;52.520;13.494;2023-03-08T04:58:53;0.80;1.00
9768;DHT22;4923;52.520;13.494;2023-03-08T05:01:40;0.80;1.00
9768;DHT22;4923;52.520;13.494;2023-03-08T05:04:28;0.70;1.00
9768;DHT22;4923;52.520;13.494;2023-03-08T05:07:15;0.60;1.00
9768;DHT22;4923;52.520;13.494;2023-03-08T05:10:03;0.50;1.00
9768;DHT22;4923;52.520;13.494;2023-03-08T05:12:50;0.40;1.00
9768;DHT22;4923;52.520;13.494;2023-03-08T05:15:37;0.30;1.00
9768;DHT22;4923;52.520;13.494;2023-03-08T05:18:24;0.20;1.00
9768;DHT22;4923;52.520;13.494;2023-03-08T05:24:10;0.10;1.00
9768;DHT22;4923;52.520;13.494;2023-03-08T05:26:56;0.10;1.00
9768;DHT22;4923;52.520;13.494;2023-03-08T05:29:43;0.00;1.00
9768;DHT22;4923;52.520;13.494;2023-03-08T05:32:30;-0.10;1.00
9768;DHT22;4923;52.520;13.494;2023-03-08T05:35:17;-0.10;1.00
9768;DHT22;4923;52.520;13.494;2023-03-08T05:38:04;0.00;1.00
9768;DHT22;4923;52.520;13.494;2023-03-08T05:40:52;0.10;1.00
9768;DHT22;4923;52.520;13.494;2023-03-08T05:43:39;0.20;1.00
9768;DHT22;4923;52.520;13.494;2023-03-08T05:46:26;0.40;1.00
9768;DHT22;4923;52.520;13.494;2023-03-08T05:49:12;0.50;1.00
9768;DHT22;4923;52.520;13.494;2023-03-08T05:51:59;0.60;1.00
9768;DHT22;4923;52.520;13.494;2023-03-08T05:54:46;0.70;1.00
9768;DHT22;4923;52.520;13.494;2023-03-08T05:57:34;0.80;1.00
9768;DHT22;4923;52.520;13.494;2023-03-08T06:00:22;1.00;1.00
9768;DHT22;4923;52.520;13.494;2023-03-08T06:03:09;1.00;1.00
9768;DHT22;4923;52.520;13.494;2023-03-08T06:05:56;1.10;1.00
9768;DHT22;4923;52.520;13.494;2023-03-08T06:08:43;1.20;1.00
9768;DHT22;4923;52.520;13.494;2023-03-08T06:11:30;1.20;1.00
9768;DHT22;4923;52.520;13.494;2023-03-08T06:14:18;1.30;1.00
9768;DHT22;4923;52.520;13.494;2023-03-08T06:17:05;1.40;1.00
9768;DHT22;4923;52.520;13.494;2023-03-08T06:19:51;1.50;1.00
9768;DHT22;4923;52.520;13.494;2023-03-08T06:22:38;1.50;1.00
9768;DHT22;4923;52.520;13.494;2023-03-08T06:25:25;1.50;1.00
9768;DHT22;4923;52.520;13.494;2023-03-08T06:28:12;1.50;1.00
9768;DHT22;4923;52.520;13.494;2023-03-08T06:31:00;1.60;1.00
9768;DHT22;4923;52.520;13.494;2023-03-08T06:33:47;1.60;1.00
9768;DHT22;4923;52.520;13.494;2023-03-08T06:36:34;1.60;1.00
9768;DHT22;4923;52.520;13.494;2023-03-08T06:39:21;1.60;1.00
9768;DHT22;4923;52.520;13.494;2023-03-08T06:42:08;1.60;1.00
9768;DHT22;4923;52.520;13.494;2023-03-08T06:44:55;1.70;1.00
9768;DHT22;4923;52.520;13.494;2023-03-08T06:47:43;1.80;1.00
9768;DHT22;4923;52.520;13.494;2023-03-08T06:50:30;1.90;1.00
9768;DHT22;4923;52.520;13.494;2023-03-08T06:53:17;2.00;1.00
9768;DHT22;4923;52.520;13.494;2023-03-08T06:56:06;2.00;1.00
9768;DHT22;4923;52.520;13.494;2023-03-08T06:58:53;2.10;1.00
9768;DHT22;4923;52.520;13.494;2023-03-08T07:01:40;2.00;1.00
9768;DHT22;4923;52.520;13.494;2023-03-08T07:04:28;2.10;1.00
9768;DHT22;4923;52.520;13.494;2023-03-08T07:07:14;2.10;1.00
9768;DHT22;4923;52.520;13.494;2023-03-08T07:10:02;2.20;1.00
9768;DHT22;4923;52.520;13.494;2023-03-08T07:12:49;2.30;1.00
9768;DHT22;4923;52.520;13.494;2023-03-08T07:15:38;2.40;1.00
9768;DHT22;4923;52.520;13.494;2023-03-08T07:18:25;2.60;1.00
9768;DHT22;4923;52.520;13.494;2023-03-08T07:21:13;2.70;1.00
9768;DHT22;4923;52.520;13.494;2023-03-08T07:24:00;2.80;1.00
9768;DHT22;4923;52.520;13.494;2023-03-08T07:26:47;2.90;1.00
9768;DHT22;4923;52.520;13.494;2023-03-08T07:29:35;2.90;1.00
9768;DHT22;4923;52.520;13.494;2023-03-08T07:32:22;2.80;1.00
9768;DHT22;4923;52.520;13.494;2023-03-08T07:35:14;2.80;99.90
9768;DHT22;4923;52.520;13.494;2023-03-08T07:38:02;2.90;99.90
9768;DHT22;4923;52.520;13.494;2023-03-08T07:40:53;2.90;99.90
9768;DHT22;4923;52.520;13.494;2023-03-08T07:43:40;2.90;99.90
9768;DHT22;4923;52.520;13.494;2023-03-08T07:46:27;3.00;99.90
9768;DHT22;4923;52.520;13.494;2023-03-08T07:49:14;3.10;99.90
9768;DHT22;4923;52.520;13.494;2023-03-08T07:52:01;3.20;99.90
9768;DHT22;4923;52.520;13.494;2023-03-08T07:54:49;3.20;99.90
9768;DHT22;4923;52.520;13.494;2023-03-08T07:57:37;3.20;99.90
9768;DHT22;4923;52.520;13.494;2023-03-08T08:00:24;3.30;99.90
9768;DHT22;4923;52.520;13.494;2023-03-08T08:03:11;3.20;99.90
9768;DHT22;4923;52.520;13.494;2023-03-08T08:06:01;3.30;99.90
9768;DHT22;4923;52.520;13.494;2023-03-08T08:08:48;3.40;99.90
9768;DHT22;4923;52.520;13.494;2023-03-08T08:11:36;3.20;99.90
9768;DHT22;4923;52.520;13.494;2023-03-08T08:14:23;3.40;99.90
9768;DHT22;4923;52.520;13.494;2023-03-08T08:17:11;3.40;99.90
9768;DHT22;4923;52.520;13.494;2023-03-08T08:19:57;3.60;99.90
9768;DHT22;4923;52.520;13.494;2023-03-08T08:22:45;3.70;99.90
9768;DHT22;4923;52.520;13.494;2023-03-08T08:25:32;3.90;99.90
9768;DHT22;4923;52.520;13.494;2023-03-08T08:28:20;4.10;99.90
9768;DHT22;4923;52.520;13.494;2023-03-08T08:31:09;4.40;99.90
9768;DHT22;4923;52.520;13.494;2023-03-08T08:33:56;4.60;99.90
9768;DHT22;4923;52.520;13.494;2023-03-08T08:36:43;4.80;99.90
9768;DHT22;4923;52.520;13.494;2023-03-08T08:39:30;5.20;99.90
9768;DHT22;4923;52.520;13.494;2023-03-08T08:42:16;5.50;99.90
9768;DHT22;4923;52.520;13.494;2023-03-08T08:45:06;5.50;76.70
9768;DHT22;4923;52.520;13.494;2023-03-08T08:47:53;5.70;44.00
9768;DHT22;4923;52.520;13.494;2023-03-08T08:50:40;6.00;11.60
9768;DHT22;4923;52.520;13.494;2023-03-08T08:53:28;6.10;1.00
9768;DHT22;4923;52.520;13.494;2023-03-08T08:56:16;6.30;1.00
9768;DHT22;4923;52.520;13.494;2023-03-08T08:59:04;6.60;1.00
9768;DHT22;4923;52.520;13.494;2023-03-08T09:01:52;6.90;1.00
9768;DHT22;4923;52.520;13.494;2023-03-08T09:04:39;6.90;1.00
9768;DHT22;4923;52.520;13.494;2023-03-08T09:07:25;6.80;1.00
9768;DHT22;4923;52.520;13.494;2023-03-08T09:10:12;6.70;1.00
9768;DHT22;4923;52.520;13.494;2023-03-08T09:12:59;5.70;1.00
9768;DHT22;4923;52.520;13.494;2023-03-08T09:15:46;5.50;1.00
9768;DHT22;4923;52.520;13.494;2023-03-08T09:18:34;5.30;1.00
9768;DHT22;4923;52.520;13.494;2023-03-08T09:21:21;5.60;1.00
9768;DHT22;4923;52.520;13.494;2023-03-08T09:24:10;5.70;1.00
9768;DHT22;4923;52.520;13.494;2023-03-08T09:26:57;5.70;1.00
9768;DHT22;4923;52.520;13.494;2023-03-08T09:29:44;5.80;1.00
9768;DHT22;4923;52.520;13.494;2023-03-08T09:32:31;6.00;1.00
9768;DHT22;4923;52.520;13.494;2023-03-08T09:35:20;6.30;1.00
9768;DHT22;4923;52.520;13.494;2023-03-08T09:38:07;6.50;1.00
9768;DHT22;4923;52.520;13.494;2023-03-08T09:41:02;6.70;1.00
9768;DHT22;4923;52.520;13.494;2023-03-08T09:44:03;6.80;1.00
9768;DHT22;4923;52.520;13.494;2023-03-08T09:46:53;6.90;1.00
9768;DHT22;4923;52.520;13.494;2023-03-08T09:49:43;6.90;1.00
9768;DHT22;4923;52.520;13.494;2023-03-08T09:52:36;6.90;1.00
9768;DHT22;4923;52.520;13.494;2023-03-08T09:55:25;7.10;1.00
9768;DHT22;4923;52.520;13.494;2023-03-08T09:58:21;7.90;1.00
9768;DHT22;4923;52.520;13.494;2023-03-08T10:01:20;7.70;1.00
9768;DHT22;4923;52.520;13.494;2023-03-08T10:04:18;7.60;1.00
9768;DHT22;4923;52.520;13.494;2023-03-08T10:07:19;7.70;1.00
9768;DHT22;4923;52.520;13.494;2023-03-08T10:10:18;8.00;1.00
9768;DHT22;4923;52.520;13.494;2023-03-08T10:13:26;8.20;1.00
9768;DHT22;4923;52.520;13.494;2023-03-08T10:16:18;8.40;1.00
9768;DHT22;4923;52.520;13.494;2023-03-08T10:19:13;8.20;1.00
9768;DHT22;4923;52.520;13.494;2023-03-08T10:22:05;8.30;1.00
9768;DHT22;4923;52.520;13.494;2023-03-08T10:24:56;8.30;1.00
9768;DHT22;4923;52.520;13.494;2023-03-08T10:27:47;8.50;1.00
9768;DHT22;4923;52.520;13.494;2023-03-08T10:30:39;8.40;1.00
9768;DHT22;4923;52.520;13.494;2023-03-08T10:33:31;8.60;1.00
9768;DHT22;4923;52.520;13.494;2023-03-08T10:36:20;8.50;1.00
9768;DHT22;4923;52.520;13.494;2023-03-08T10:39:08;8.50;1.00
9768;DHT22;4923;52.520;13.494;2023-03-08T10:41:58;8.40;1.00
9768;DHT22;4923;52.520;13.494;2023-03-08T10:44:53;8.50;1.00
9768;DHT22;4923;52.520;13.494;2023-03-08T10:47:41;8.40;1.00
9768;DHT22;4923;52.520;13.494;2023-03-08T10:50:29;8.40;1.00
9768;DHT22;4923;52.520;13.494;2023-03-08T10:53:18;8.70;1.00
9768;DHT22;4923;52.520;13.494;2023-03-08T10:56:19;8.50;1.00
9768;DHT22;4923;52.520;13.494;2023-03-08T10:59:17;8.60;1.00
9768;DHT22;4923;52.520;13.494;2023-03-08T11:02:18;8.40;1.00
9768;DHT22;4923;52.520;13.494;2023-03-08T11:05:18;8.50;1.00
9768;DHT22;4923;52.520;13.494;2023-03-08T11:08:16;8.60;1.00
9768;DHT22;4923;52.520;13.494;2023-03-08T11:11:06;8.70;1.00
9768;DHT22;4923;52.520;13.494;2023-03-08T11:13:54;8.70;1.00
9768;DHT22;4923;52.520;13.494;2023-03-08T11:16:57;8.70;1.00
9768;DHT22;4923;52.520;13.494;2023-03-08T11:19:58;8.90;1.00
9768;DHT22;4923;52.520;13.494;2023-03-08T11:23:02;9.00;1.00
9768;DHT22;4923;52.520;13.494;2023-03-08T11:25:56;9.00;1.00
9768;DHT22;4923;52.520;13.494;2023-03-08T11:29:01;8.50;1.00
9768;DHT22;4923;52.520;13.494;2023-03-08T11:31:55;8.90;1.00
9768;DHT22;4923;52.520;13.494;2023-03-08T11:35:02;9.00;1.00
9768;DHT22;4923;52.520;13.494;2023-03-08T11:37:58;8.80;1.00
9768;DHT22;4923;52.520;13.494;2023-03-08T11:40:54;8.90;1.00
9768;DHT22;4923;52.520;13.494;2023-03-08T11:43:57;8.60;1.00
9768;DHT22;4923;52.520;13.494;2023-03-08T11:46:56;8.60;1.00
9768;DHT22;4923;52.520;13.494;2023-03-08T11:49:53;8.70;1.00
9768;DHT22;4923;52.520;13.494;2023-03-08T11:52:52;8.80;1.00
9768;DHT22;4923;52.520;13.494;2023-03-08T11:55:56;8.70;1.00
9768;DHT22;4923;52.520;13.494;2023-03-08T11:58:50;8.50;1.00
9768;DHT22;4923;52.520;13.494;2023-03-08T12:01:42;8.60;1.00
9768;DHT22;4923;52.520;13.494;2023-03-08T12:04:34;8.50;1.00
9768;DHT22;4923;52.520;13.494;2023-03-08T12:07:27;8.40;1.00
9768;DHT22;4923;52.520;13.494;2023-03-08T12:10:21;8.40;1.00
9768;DHT22;4923;52.520;13.494;2023-03-08T12:13:15;8.20;1.00
9768;DHT22;4923;52.520;13.494;2023-03-08T12:16:10;8.20;1.00
9768;DHT22;4923;52.520;13.494;2023-03-08T12:19:04;8.00;1.00
9768;DHT22;4923;52.520;13.494;2023-03-08T12:22:02;8.10;1.00
9768;DHT22;4923;52.520;13.494;2023-03-08T12:24:54;8.00;1.00
9768;DHT22;4923;52.520;13.494;2023-03-08T12:27:47;8.00;1.00
9768;DHT22;4923;52.520;13.494;2023-03-08T12:30:43;8.20;1.00
9768;DHT22;4923;52.520;13.494;2023-03-08T12:33:35;8.30;1.00
9768;DHT22;4923;52.520;13.494;2023-03-08T12:36:35;8.50;1.00
9768;DHT22;4923;52.520;13.494;2023-03-08T12:39:25;8.60;1.00
9768;DHT22;4923;52.520;13.494;2023-03-08T12:42:14;8.70;1.00
9768;DHT22;4923;52.520;13.494;2023-03-08T12:45:26;8.80;1.00
9768;DHT22;4923;52.520;13.494;2023-03-08T12:48:19;8.70;1.00
9768;DHT22;4923;52.520;13.494;2023-03-08T12:51:19;8.40;1.00
9768;DHT22;4923;52.520;13.494;2023-03-08T12:54:20;8.30;1.00
9768;DHT22;4923;52.520;13.494;2023-03-08T12:57:15;8.00;1.00
9768;DHT22;4923;52.520;13.494;2023-03-08T13:00:23;7.80;1.00
9768;DHT22;4923;52.520;13.494;2023-03-08T13:03:28;7.80;1.00
9768;DHT22;4923;52.520;13.494;2023-03-08T13:09:53;7.70;1.00
9768;DHT22;4923;52.520;13.494;2023-03-08T13:13:00;7.60;1.00
9768;DHT22;4923;52.520;13.494;2023-03-08T13:15:49;7.60;1.00
9768;DHT22;4923;52.520;13.494;2023-03-08T13:18:37;7.60;1.00
9768;DHT22;4923;52.520;13.494;2023-03-08T13:21:29;7.30;1.00
9768;DHT22;4923;52.520;13.494;2023-03-08T13:24:27;7.10;1.00
9768;DHT22;4923;52.520;13.494;2023-03-08T13:27:23;7.00;1.00
9768;DHT22;4923;52.520;13.494;2023-03-08T13:30:19;6.80;1.00
9768;DHT22;4923;52.520;13.494;2023-03-08T13:33:12;6.70;1.00
9768;DHT22;4923;52.520;13.494;2023-03-08T13:36:03;6.60;1.00
9768;DHT22;4923;52.520;13.494;2023-03-08T13:38:56;6.40;1.00
9768;DHT22;4923;52.520;13.494;2023-03-08T13:41:45;6.30;1.00
9768;DHT22;4923;52.520;13.494;2023-03-08T13:44:32;6.30;1.00
9768;DHT22;4923;52.520;13.494;2023-03-08T13:47:22;6.40;1.00
9768;DHT22;4923;52.520;13.494;2023-03-08T13:50:17;6.40;1.00
9768;DHT22;4923;52.520;13.494;2023-03-08T13:53:09;6.30;1.00
9768;DHT22;4923;52.520;13.494;2023-03-08T13:55:58;6.30;1.00
9768;DHT22;4923;52.520;13.494;2023-03-08T13:58:46;6.20;1.00
9768;DHT22;4923;52.520;13.494;2023-03-08T14:01:45;6.10;1.00
9768;DHT22;4923;52.520;13.494;2023-03-08T14:04:33;6.00;1.00
9768;DHT22;4923;52.520;13.494;2023-03-08T14:07:22;6.00;1.00
9768;DHT22;4923;52.520;13.494;2023-03-08T14:10:13;6.00;1.00
9768;DHT22;4923;52.520;13.494;2023-03-08T14:13:01;6.10;1.00
9768;DHT22;4923;52.520;13.494;2023-03-08T14:15:49;5.90;1.00
9768;DHT22;4923;52.520;13.494;2023-03-08T14:18:38;5.80;1.00
9768;DHT22;4923;52.520;13.494;2023-03-08T14:21:27;5.60;1.00
9768;DHT22;4923;52.520;13.494;2023-03-08T14:24:18;5.60;1.00
9768;DHT22;4923;52.520;13.494;2023-03-08T14:27:31;5.40;1.00
9768;DHT22;4923;52.520;13.494;2023-03-08T14:30:20;5.20;1.00
9768;DHT22;4923;52.520;13.494;2023-03-08T14:33:19;5.30;1.00
9768;DHT22;4923;52.520;13.494;2023-03-08T14:36:08;5.20;1.00
9768;DHT22;4923;52.520;13.494;2023-03-08T14:38:56;5.30;1.00
9768;DHT22;4923;52.520;13.494;2023-03-08T14:41:44;5.30;1.00
9768;DHT22;4923;52.520;13.494;2023-03-08T14:44:33;5.20;1.00
9768;DHT22;4923;52.520;13.494;2023-03-08T14:47:21;5.20;1.00
9768;DHT22;4923;52.520;13.494;2023-03-08T14:50:18;5.20;1.00
9768;DHT22;4923;52.520;13.494;2023-03-08T14:53:25;5.20;1.00
9768;DHT22;4923;52.520;13.494;2023-03-08T14:56:15;5.20;1.00
9768;DHT22;4923;52.520;13.494;2023-03-08T14:59:03;5.10;1.00
9768;DHT22;4923;52.520;13.494;2023-03-08T15:01:51;5.10;1.00
9768;DHT22;4923;52.520;13.494;2023-03-08T15:04:39;5.10;1.00
9768;DHT22;4923;52.520;13.494;2023-03-08T15:07:29;5.10;1.00
9768;DHT22;4923;52.520;13.494;2023-03-08T15:10:23;5.00;1.00
9768;DHT22;4923;52.520;13.494;2023-03-08T15:13:13;5.00;1.00
9768;DHT22;4923;52.520;13.494;2023-03-08T15:16:00;5.00;10.60
9768;DHT22;4923;52.520;13.494;2023-03-08T15:18:48;5.00;19.20
9768;DHT22;4923;52.520;13.494;2023-03-08T15:21:36;5.10;26.60
9768;DHT22;4923;52.520;13.494;2023-03-08T15:24:23;4.90;26.20
9768;DHT22;4923;52.520;13.494;2023-03-08T15:27:13;4.90;44.10
9768;DHT22;4923;52.520;13.494;2023-03-08T15:30:00;4.90;62.70
9768;DHT22;4923;52.520;13.494;2023-03-08T15:32:47;5.00;90.10
9768;DHT22;4923;52.520;13.494;2023-03-08T15:35:36;4.80;94.80
9768;DHT22;4923;52.520;13.494;2023-03-08T15:38:23;4.80;99.90
9768;DHT22;4923;52.520;13.494;2023-03-08T15:41:10;4.70;99.90
9768;DHT22;4923;52.520;13.494;2023-03-08T15:43:57;4.60;99.90
9768;DHT22;4923;52.520;13.494;2023-03-08T15:46:44;4.50;99.90
9768;DHT22;4923;52.520;13.494;2023-03-08T15:49:31;4.40;99.90
9768;DHT22;4923;52.520;13.494;2023-03-08T15:52:19;4.40;99.90
9768;DHT22;4923;52.520;13.494;2023-03-08T15:55:08;4.30;99.90
9768;DHT22;4923;52.520;13.494;2023-03-08T15:57:55;4.30;99.90
9768;DHT22;4923;52.520;13.494;2023-03-08T16:00:43;4.30;99.90
9768;DHT22;4923;52.520;13.494;2023-03-08T16:03:30;4.20;99.90
9768;DHT22;4923;52.520;13.494;2023-03-08T16:06:17;4.10;99.90
9768;DHT22;4923;52.520;13.494;2023-03-08T16:09:05;4.10;99.90
9768;DHT22;4923;52.520;13.494;2023-03-08T16:11:52;4.00;99.90
9768;DHT22;4923;52.520;13.494;2023-03-08T16:14:39;4.00;99.90
9768;DHT22;4923;52.520;13.494;2023-03-08T16:17:31;3.90;99.90
9768;DHT22;4923;52.520;13.494;2023-03-08T16:20:18;3.90;99.90
9768;DHT22;4923;52.520;13.494;2023-03-08T16:23:08;3.90;99.90
9768;DHT22;4923;52.520;13.494;2023-03-08T16:26:00;3.80;99.90
9768;DHT22;4923;52.520;13.494;2023-03-08T16:28:47;3.90;99.90
9768;DHT22;4923;52.520;13.494;2023-03-08T16:31:34;3.80;99.90
9768;DHT22;4923;52.520;13.494;2023-03-08T16:34:21;3.70;99.90
9768;DHT22;4923;52.520;13.494;2023-03-08T16:37:08;3.60;99.90
9768;DHT22;4923;52.520;13.494;2023-03-08T16:39:55;3.50;99.90
9768;DHT22;4923;52.520;13.494;2023-03-08T16:42:50;3.40;99.90
9768;DHT22;4923;52.520;13.494;2023-03-08T16:45:38;3.40;99.90
9768;DHT22;4923;52.520;13.494;2023-03-08T16:48:37;3.30;99.90
9768;DHT22;4923;52.520;13.494;2023-03-08T16:51:26;3.30;99.90
9768;DHT22;4923;52.520;13.494;2023-03-08T16:54:15;3.20;99.90
9768;DHT22;4923;52.520;13.494;2023-03-08T16:57:02;3.20;99.90
9768;DHT22;4923;52.520;13.494;2023-03-08T16:59:51;3.20;99.90
9768;DHT22;4923;52.520;13.494;2023-03-08T17:02:38;3.10;99.90
9768;DHT22;4923;52.520;13.494;2023-03-08T17:05:25;3.00;99.90
9768;DHT22;4923;52.520;13.494;2023-03-08T17:08:12;3.00;99.90
9768;DHT22;4923;52.520;13.494;2023-03-08T17:10:59;3.00;99.90
9768;DHT22;4923;52.520;13.494;2023-03-08T17:13:48;3.00;99.90
9768;DHT22;4923;52.520;13.494;2023-03-08T17:16:37;2.90;99.90
9768;DHT22;4923;52.520;13.494;2023-03-08T17:19:25;2.80;99.90
9768;DHT22;4923;52.520;13.494;2023-03-08T17:22:11;2.80;99.90
9768;DHT22;4923;52.520;13.494;2023-03-08T17:24:58;2.80;99.90
9768;DHT22;4923;52.520;13.494;2023-03-08T17:27:45;2.80;99.90
9768;DHT22;4923;52.520;13.494;2023-03-08T17:30:32;2.80;99.90
9768;DHT22;4923;52.520;13.494;2023-03-08T17:33:20;2.70;99.90
9768;DHT22;4923;52.520;13.494;2023-03-08T17:36:11;2.70;99.90
9768;DHT22;4923;52.520;13.494;2023-03-08T17:38:58;2.70;99.90
9768;DHT22;4923;52.520;13.494;2023-03-08T17:41:45;2.70;99.90
9768;DHT22;4923;52.520;13.494;2023-03-08T17:44:32;2.60;99.90
9768;DHT22;4923;52.520;13.494;2023-03-08T17:47:19;2.60;99.90
9768;DHT22;4923;52.520;13.494;2023-03-08T17:50:10;2.60;99.90
9768;DHT22;4923;52.520;13.494;2023-03-08T17:52:57;2.60;99.90
9768;DHT22;4923;52.520;13.494;2023-03-08T17:55:44;2.60;99.90
9768;DHT22;4923;52.520;13.494;2023-03-08T17:58:31;2.70;99.90
9768;DHT22;4923;52.520;13.494;2023-03-08T18:01:20;2.60;99.90
9768;DHT22;4923;52.520;13.494;2023-03-08T18:04:07;2.70;99.90
9768;DHT22;4923;52.520;13.494;2023-03-08T18:06:55;2.70;99.90
9768;DHT22;4923;52.520;13.494;2023-03-08T18:09:44;2.70;99.90
9768;DHT22;4923;52.520;13.494;2023-03-08T18:12:31;2.70;99.90
9768;DHT22;4923;52.520;13.494;2023-03-08T18:15:18;2.70;99.90
9768;DHT22;4923;52.520;13.494;2023-03-08T18:18:05;2.70;1.00
9768;DHT22;4923;52.520;13.494;2023-03-08T18:20:52;2.70;1.00
9768;DHT22;4923;52.520;13.494;2023-03-08T18:23:40;2.70;1.00
9768;DHT22;4923;52.520;13.494;2023-03-08T18:26:28;2.70;1.00
9768;DHT22;4923;52.520;13.494;2023-03-08T18:29:15;2.70;1.00
9768;DHT22;4923;52.520;13.494;2023-03-08T18:32:02;2.60;1.00
9768;DHT22;4923;52.520;13.494;2023-03-08T18:34:49;2.60;1.00
9768;DHT22;4923;52.520;13.494;2023-03-08T18:37:36;2.70;1.00
9768;DHT22;4923;52.520;13.494;2023-03-08T18:40:25;2.70;1.00
9768;DHT22;4923;52.520;13.494;2023-03-08T18:43:14;2.80;1.00
9768;DHT22;4923;52.520;13.494;2023-03-08T18:46:00;2.80;1.00
9768;DHT22;4923;52.520;13.494;2023-03-08T18:48:48;2.70;1.00
9768;DHT22;4923;52.520;13.494;2023-03-08T18:51:37;2.80;1.00